Time;durP1;ratioP1;P1;durP2;ratioP2;P2;SDS_P1;SDS_P2;PMS_P1;PMS_P2;Temp;Humidity;BMP_temperature;BMP_pressure;BME280_temperature;BME280_humidity;BME280_pressure;Samples;Min_cycle;Max_cycle;Signal;HPM_P1;HPM_P2
2023/03/25 00:01:36;;;;;;;7.90;3.10;;;;;;;6.52;61.43;64420.34;5092539;28;20043;-76
2023/03/25 00:04:03;;;;;;;6.13;2.90;;;;;;;6.52;60.88;64420.34;5057823;28;20036;-76
2023/03/25 00:06:33;;;;;;;6.13;2.40;;;;;;;6.45;61.03;64412.50;5091170;28;20411;-76
2023/03/25 00:08:59;;;;;;;4.10;2.65;;;;;;;6.42;60.94;64409.13;5074367;28;20551;-76
2023/03/25 00:11:25;;;;;;;6.68;2.33;;;;;;;6.33;61.07;64399.59;5091340;28;20036;-76
2023/03/25 00:13:52;;;;;;;6.05;2.63;;;;;;;6.31;61.04;64397.34;5091169;28;20097;-76
2023/03/25 00:16:18;;;;;;;7.57;2.92;;;;;;;6.22;61.21;64386.72;5074260;28;20031;-75
2023/03/25 00:18:46;;;;;;;4.80;2.85;;;;;;;6.17;61.48;64381.69;5092380;28;20040;-75
2023/03/25 00:21:13;;;;;;;4.32;2.20;;;;;;;6.08;61.79;64371.59;5092584;28;20127;-76
2023/03/25 00:23:40;;;;;;;4.13;2.28;;;;;;;5.98;61.61;64360.94;5061491;28;20040;-76
2023/03/25 00:26:06;;;;;;;4.78;2.75;;;;;;;6.05;61.68;64368.78;5094799;28;20086;-77
2023/03/25 00:28:34;;;;;;;3.35;2.70;;;;;;;6.08;61.50;64372.13;5076609;28;20051;-77
2023/03/25 00:31:03;;;;;;;5.97;2.30;;;;;;;6.09;61.18;64372.69;5076943;28;20083;-76
2023/03/25 00:33:30;;;;;;;5.03;2.30;;;;;;;6.08;61.55;64372.13;5060398;28;20094;-76
2023/03/25 00:35:59;;;;;;;3.58;2.20;;;;;;;6.04;61.53;64367.66;5077043;28;20040;-75
2023/03/25 00:38:33;;;;;;;6.13;2.28;;;;;;;6.07;61.37;64371.03;5076956;28;20511;-78
2023/03/25 00:41:16;;;;;;;6.00;2.13;;;;;;;6.03;61.03;64366.53;5076898;28;20051;-76
2023/03/25 00:43:43;;;;;;;5.13;2.22;;;;;;;6.00;61.28;64363.19;5076730;28;20063;-77
2023/03/25 00:46:10;;;;;;;2.95;2.40;;;;;;;6.04;61.44;64367.09;5093667;28;20051;-78
2023/03/25 00:48:36;;;;;;;6.85;2.53;;;;;;;6.11;61.27;64374.38;5076469;28;20554;-76
2023/03/25 00:51:07;;;;;;;3.00;2.35;;;;;;;6.19;61.08;64383.34;5059932;28;20048;-75
2023/03/25 00:53:34;;;;;;;4.43;2.30;;;;;;;6.14;61.04;64378.31;5076473;28;20091;-77
2023/03/25 00:56:01;;;;;;;2.88;2.40;;;;;;;6.22;61.11;64387.28;5076274;28;20186;-76
2023/03/25 00:58:27;;;;;;;3.35;2.60;;;;;;;6.28;60.88;64394.00;5093085;28;20040;-78
2023/03/25 01:00:55;;;;;;;7.00;3.50;;;;;;;6.32;60.60;64397.94;5076320;28;20134;-76
2023/03/25 01:03:27;;;;;;;8.27;4.00;;;;;;;6.36;61.00;64402.41;5076012;28;20048;-75
2023/03/25 01:05:54;;;;;;;9.13;4.32;;;;;;;6.32;60.76;64398.50;5082891;28;20052;-77
2023/03/25 01:08:24;;;;;;;7.47;4.38;;;;;;;6.35;60.63;64400.72;5073715;28;20048;-76
2023/03/25 01:10:54;;;;;;;8.48;3.97;;;;;;;6.42;60.77;64409.13;5094432;28;20036;-77
2023/03/25 01:13:22;;;;;;;9.20;3.80;;;;;;;6.43;60.59;64410.25;5093929;28;20040;-77
2023/03/25 01:15:49;;;;;;;;;;;;;;;6.41;60.49;64408.00;5077750;28;20108;-76
2023/03/25 01:18:15;;;;;;;6.63;3.42;;;;;;;6.32;60.41;64398.50;5093983;28;19916;-76
2023/03/25 01:20:42;;;;;;;7.45;3.50;;;;;;;6.24;60.75;64388.94;5077020;28;20044;-76
2023/03/25 01:23:08;;;;;;;9.32;3.70;;;;;;;6.23;60.56;64387.84;5077160;28;20086;-76
2023/03/25 01:25:35;;;;;;;10.35;4.28;;;;;;;6.13;60.89;64376.63;5093956;28;20075;-76
2023/03/25 01:28:01;;;;;;;8.52;3.50;;;;;;;6.11;60.76;64374.38;5076711;28;20461;-76
2023/03/25 01:30:28;;;;;;;8.13;3.95;;;;;;;6.11;61.01;64374.94;5093791;28;20050;-76
2023/03/25 01:32:54;;;;;;;9.32;3.83;;;;;;;6.02;61.14;64380.66;5093393;28;20074;-76
2023/03/25 01:35:20;;;;;;;9.25;3.50;;;;;;;6.05;61.24;64368.22;5094830;28;20040;-77
2023/03/25 01:37:46;;;;;;;8.43;3.72;;;;;;;6.03;60.92;64366.53;5093519;28;20039;-77
2023/03/25 01:40:22;;;;;;;9.27;3.78;;;;;;;6.01;61.05;64364.28;5093477;28;20063;-77
2023/03/25 01:42:48;;;;;;;6.32;3.30;;;;;;;5.96;61.47;64358.69;5076705;28;20078;-76
2023/03/25 01:45:26;;;;;;;5.97;2.78;;;;;;;5.99;61.25;64362.06;5094730;28;20071;-77
2023/03/25 01:47:59;;;;;;;7.93;3.25;;;;;;;6.05;61.12;64368.78;5076436;28;20051;-77
2023/03/25 01:50:27;;;;;;;7.32;3.20;;;;;;;6.16;60.91;64380.53;5076761;28;20560;-77
2023/03/25 01:52:56;;;;;;;5.88;3.38;;;;;;;6.15;60.61;64378.88;5093486;28;20044;-76
2023/03/25 01:55:22;;;;;;;6.38;3.15;;;;;;;6.18;60.74;64382.22;5093399;28;20051;-76
2023/03/25 01:57:53;;;;;;;4.32;3.15;;;;;;;6.19;60.58;64383.91;5092955;28;20517;-76
2023/03/25 02:00:20;;;;;;;6.13;3.03;;;;;;;6.15;60.49;64378.88;5093340;28;20047;-76
2023/03/25 02:02:47;;;;;;;5.93;3.20;;;;;;;6.14;60.45;64377.75;5076137;28;20469;-75
2023/03/25 02:05:25;;;;;;;6.53;3.47;;;;;;;6.20;60.26;64385.03;5092788;28;20074;-77
2023/03/25 02:07:53;;;;;;;5.03;3.15;;;;;;;6.24;60.17;64388.94;5059444;28;20039;-76
2023/03/25 02:10:19;;;;;;;10.50;5.72;;;;;;;6.25;60.11;64390.09;5075945;28;20113;-76
2023/03/25 02:12:46;;;;;;;6.28;3.33;;;;;;;6.37;60.25;64403.53;5059174;28;20047;-77
2023/03/25 02:15:17;;;;;;;7.20;3.17;;;;;;;6.48;60.00;64415.28;5093053;28;20483;-76
2023/03/25 02:18:07;;;;;;;5.18;3.13;;;;;;;6.52;59.77;64420.34;5092938;28;20127;-76
2023/03/25 02:20:44;;;;;;;5.65;3.10;;;;;;;6.46;59.41;64413.59;5059281;28;20043;-77
2023/03/25 02:23:40;;;;;;;11.23;3.28;;;;;;;6.54;59.70;64422.59;5059156;28;20462;-77
2023/03/25 02:26:18;;;;;;;12.90;3.42;;;;;;;6.59;59.40;64427.06;5075841;28;20044;-76
2023/03/25 02:28:53;;;;;;;7.88;3.40;;;;;;;6.55;59.34;64423.69;5075266;28;20059;-76
2023/03/25 02:31:31;;;;;;;5.20;3.00;;;;;;;6.62;59.56;64431.00;5075758;28;20494;-77
2023/03/25 02:34:04;;;;;;;;;;;;;;;6.70;59.16;64439.97;5059532;28;20044;-76
2023/03/25 02:36:55;;;;;;;7.75;3.05;;;;;;;6.67;59.30;64436.03;5092869;28;19920;-78
2023/03/25 02:39:31;;;;;;;6.18;2.90;;;;;;;6.59;59.23;64427.06;5075832;28;20048;-77
2023/03/25 02:42:25;;;;;;;5.53;3.10;;;;;;;6.53;58.98;64420.91;5092865;28;20494;-76
2023/03/25 02:45:08;;;;;;;6.35;3.22;;;;;;;6.48;59.19;64415.28;5091485;28;20075;-77
2023/03/25 02:47:38;;;;;;;15.27;3.10;;;;;;;6.50;59.11;64418.09;5091945;28;20094;-75
2023/03/25 02:50:19;;;;;;;7.30;3.15;;;;;;;6.39;59.42;64405.75;5058598;28;20527;-76
2023/03/25 02:52:49;;;;;;;15.27;3.28;;;;;;;6.34;59.62;64400.16;5075928;28;20048;-76
2023/03/25 02:55:18;;;;;;;9.57;2.97;;;;;;;6.41;59.47;64407.44;5092326;28;20048;-76
2023/03/25 02:57:48;;;;;;;14.45;2.80;;;;;;;6.54;59.33;64422.00;5092178;28;20047;-77
2023/03/25 03:00:19;;;;;;;5.65;3.10;;;;;;;6.65;58.94;64433.78;5075094;28;20169;-77
2023/03/25 03:02:58;;;;;;;5.72;3.33;;;;;;;6.67;58.61;64436.03;5072974;28;20047;-77
2023/03/25 03:05:37;;;;;;;11.68;3.15;;;;;;;6.67;58.30;64436.59;5068093;28;20063;-77
2023/03/25 03:08:22;;;;;;;11.95;3.15;;;;;;;6.76;58.40;64446.13;5055176;28;20055;-76
2023/03/25 03:10:50;;;;;;;6.72;3.03;;;;;;;6.69;58.01;64438.81;5073035;28;20045;-77
2023/03/25 03:13:46;;;;;;;9.35;3.60;;;;;;;6.72;58.11;64441.63;5054775;28;20044;-77
2023/03/25 03:16:39;;;;;;;7.70;2.92;;;;;;;6.76;57.93;64446.13;5038399;28;20044;-77
2023/03/25 03:19:22;;;;;;;14.75;6.40;;;;;;;6.76;57.84;64446.13;5038483;28;20047;-77
2023/03/25 03:22:01;;;;;;;10.00;3.67;;;;;;;6.86;58.07;64457.34;5072609;28;20507;-77
2023/03/25 03:24:31;;;;;;;8.02;3.55;;;;;;;7.01;57.82;64474.16;5054608;28;20040;-77
2023/03/25 03:26:57;;;;;;;4.93;3.58;;;;;;;7.05;57.45;64478.63;5054473;28;20045;-77
2023/03/25 03:29:35;;;;;;;10.93;3.78;;;;;;;7.06;57.01;64479.75;5054819;28;20062;-76
2023/03/25 03:32:00;;;;;;;8.60;3.80;;;;;;;7.04;57.16;64477.53;5054527;28;20082;-76
2023/03/25 03:34:54;;;;;;;5.15;2.90;;;;;;;7.01;57.26;64474.16;5072378;28;20067;-77
2023/03/25 03:37:32;;;;;;;7.50;3.63;;;;;;;7.00;57.38;64473.03;5051899;28;20515;-77
2023/03/25 03:39:58;;;;;;;21.05;4.60;;;;;;;6.98;57.55;64470.22;5071513;28;20048;-76
2023/03/25 03:42:36;;;;;;;12.75;4.65;;;;;;;7.00;57.35;64473.03;5072584;28;20098;-77
2023/03/25 03:45:09;;;;;;;10.77;3.95;;;;;;;6.93;57.64;64465.19;5061717;28;20040;-77
2023/03/25 03:47:41;;;;;;;9.38;2.88;;;;;;;7.11;57.30;64484.25;5057473;28;20046;-76
2023/03/25 03:50:12;;;;;;;17.35;3.63;;;;;;;7.15;56.80;64488.75;5054356;28;20114;-77
2023/03/25 03:52:50;;;;;;;9.20;2.92;;;;;;;7.36;56.38;64512.28;5037937;28;20048;-76
2023/03/25 03:55:22;;;;;;;7.25;3.40;;;;;;;7.31;55.83;64506.69;5090168;28;20075;-77
2023/03/25 03:57:53;;;;;;;9.02;2.38;;;;;;;7.27;55.72;64502.75;5058557;28;20040;-78
2023/03/25 04:00:28;;;;;;;5.15;2.40;;;;;;;7.37;55.89;64513.41;5075394;28;20151;-77
2023/03/25 04:03:13;;;;;;;4.57;2.13;;;;;;;7.38;55.29;64514.53;5075067;28;20048;-79
2023/03/25 04:05:47;;;;;;;4.50;2.22;;;;;;;7.36;55.55;64512.28;5075552;28;20063;-76
2023/03/25 04:08:22;;;;;;;4.45;2.22;;;;;;;7.30;55.30;64506.13;5058442;28;20041;-77
2023/03/25 04:10:57;;;;;;;6.05;2.20;;;;;;;7.11;55.67;64484.81;5091901;28;20040;-77
2023/03/25 04:13:30;;;;;;;3.83;2.10;;;;;;;7.03;55.92;64476.41;5058343;28;20052;-78
2023/03/25 04:15:59;;;;;;;6.53;1.90;;;;;;;7.17;56.20;64490.97;5075012;28;20139;-76
2023/03/25 04:18:27;;;;;;;5.07;1.98;;;;;;;7.30;55.57;64505.56;5044283;28;20491;-79
2023/03/25 04:20:54;;;;;;;5.72;2.22;;;;;;;7.28;55.71;64503.31;5074770;28;20082;-77
2023/03/25 04:23:20;;;;;;;9.07;2.15;;;;;;;7.35;55.66;64511.16;5041563;28;20139;-77
2023/03/25 04:25:51;;;;;;;3.88;1.80;;;;;;;7.41;55.47;64517.91;5075910;28;20456;-76
2023/03/25 04:28:18;;;;;;;7.32;2.25;;;;;;;7.39;55.72;64515.66;5073916;28;20146;-78
2023/03/25 04:30:45;;;;;;;1.88;1.67;;;;;;;7.48;56.89;64525.75;5078398;28;20087;-82
2023/03/25 04:33:12;;;;;;;6.57;1.90;;;;;;;7.66;55.96;64544.81;5094764;28;20048;-86
2023/03/25 04:35:39;;;;;;;2.38;1.55;;;;;;;7.96;57.86;64578.50;5096812;28;20444;-87
2023/03/25 04:38:08;;;;;;;5.38;1.95;;;;;;;8.33;56.25;64618.91;5094879;28;20066;-85
2023/03/25 04:40:33;;;;;;;3.45;2.13;;;;;;;8.70;57.51;64659.38;5094723;28;20048;-84
2023/03/25 04:42:59;;;;;;;13.10;2.20;;;;;;;8.66;54.69;64654.88;5077883;28;20494;-87
2023/03/25 04:45:27;;;;;;;2.00;1.80;;;;;;;8.51;55.02;64639.16;5094849;28;20193;-82
2023/03/25 04:47:53;;;;;;;8.52;1.77;;;;;;;8.14;55.56;64598.16;5077700;28;20054;-83
2023/03/25 04:50:28;;;;;;;5.22;1.83;;;;;;;7.96;56.22;64578.50;5096515;28;20078;-80
2023/03/25 04:52:56;;;;;;;7.05;2.30;;;;;;;7.82;56.50;64562.22;5060905;28;20064;-79
2023/03/25 04:55:22;;;;;;;6.32;2.08;;;;;;;7.81;56.67;64561.66;5094380;28;20036;-78
2023/03/25 04:57:53;;;;;;;5.93;2.30;;;;;;;7.62;56.78;64540.34;5095568;28;20047;-78
2023/03/25 05:00:22;;;;;;;4.55;2.40;;;;;;;7.55;57.30;64533.59;5095671;28;20043;-78
2023/03/25 05:02:52;;;;;;;4.00;2.17;;;;;;;7.68;57.56;64547.63;5077317;28;20040;-80
2023/03/25 05:05:21;;;;;;;5.20;2.13;;;;;;;7.70;57.52;64549.88;5060508;28;20036;-79
2023/03/25 05:07:49;;;;;;;4.07;2.47;;;;;;;7.60;57.79;64538.66;5094709;28;20040;-76
2023/03/25 05:10:17;;;;;;;3.35;2.15;;;;;;;7.70;58.06;64549.88;5088774;28;20040;-81
2023/03/25 05:12:43;;;;;;;7.75;2.53;;;;;;;7.95;57.98;64577.38;5065969;28;20380;-79
2023/03/25 05:15:10;;;;;;;7.13;2.63;;;;;;;8.22;58.09;64606.56;5059396;28;20047;-77
2023/03/25 05:17:40;;;;;;;5.88;2.88;;;;;;;8.23;57.37;64607.69;5077036;28;20040;-79
2023/03/25 05:20:10;;;;;;;5.30;3.15;;;;;;;8.28;56.93;64613.88;5111095;28;20051;-79
2023/03/25 05:22:37;;;;;;;9.70;4.10;;;;;;;8.17;57.30;64600.97;5077103;28;20101;-77
2023/03/25 05:25:05;;;;;;;6.90;3.72;;;;;;;8.24;57.39;64609.38;5076842;28;20071;-78
2023/03/25 05:27:32;;;;;;;6.07;3.53;;;;;;;8.02;57.72;64584.69;5077023;28;20056;-84
2023/03/25 05:29:58;;;;;;;6.68;4.32;;;;;;;7.99;57.91;64581.88;5109624;28;20054;-78
2023/03/25 05:32:28;;;;;;;6.53;3.63;;;;;;;7.92;58.36;64574.00;5090126;28;20155;-86
2023/03/25 05:34:56;;;;;;;8.68;3.55;;;;;;;7.85;58.76;64566.16;5074812;28;20215;-77
2023/03/25 05:37:22;;;;;;;6.25;3.50;;;;;;;7.92;59.06;64574.00;5055021;28;20093;-78
2023/03/25 05:39:50;;;;;;;10.35;3.72;;;;;;;7.86;59.32;64566.69;5067051;28;20036;-77
2023/03/25 05:42:17;;;;;;;12.63;4.72;;;;;;;7.84;59.47;64565.03;5088540;28;20542;-80
2023/03/25 05:44:45;;;;;;;10.77;4.13;;;;;;;7.98;58.58;64580.75;5093364;28;20491;-78
2023/03/25 05:47:12;;;;;;;8.77;3.90;;;;;;;8.03;58.84;64586.34;5076786;28;20052;-83
2023/03/25 05:49:40;;;;;;;11.50;3.88;;;;;;;8.09;58.46;64591.97;5076581;28;20691;-78
2023/03/25 05:52:08;;;;;;;8.75;3.95;;;;;;;8.33;57.74;64618.34;5094695;28;20147;-79
2023/03/25 05:54:37;;;;;;;7.28;3.72;;;;;;;8.64;56.89;64653.19;5089841;28;20074;-80
2023/03/25 05:57:04;;;;;;;11.20;4.40;;;;;;;8.79;56.22;64668.91;5090872;28;20518;-78
2023/03/25 05:59:30;;;;;;;7.25;4.10;;;;;;;8.91;55.91;64682.41;5093239;28;20040;-82
2023/03/25 06:01:56;;;;;;;13.00;3.88;;;;;;;8.92;55.45;64683.53;5093106;28;20050;-81
2023/03/25 06:04:22;;;;;;;13.73;4.15;;;;;;;9.21;55.50;64716.13;5059375;28;20044;-81
2023/03/25 06:06:48;;;;;;;9.32;3.97;;;;;;;9.26;54.92;64720.63;5064408;28;20056;-82
2023/03/25 06:09:14;;;;;;;4.72;3.65;;;;;;;9.14;54.81;64708.25;5074640;28;20385;-79
2023/03/25 06:11:40;;;;;;;8.30;4.30;;;;;;;9.26;54.59;64721.19;5075928;28;20036;-81
2023/03/25 06:14:06;;;;;;;9.65;4.38;;;;;;;9.14;54.68;64707.66;5057596;28;20036;-82
2023/03/25 06:16:32;;;;;;;9.73;4.28;;;;;;;9.03;54.64;64695.88;5040173;28;20037;-80
2023/03/25 06:18:59;;;;;;;12.30;4.50;;;;;;;8.94;54.99;64686.31;5071554;28;20127;-80
2023/03/25 06:21:26;;;;;;;12.52;3.65;;;;;;;8.79;54.70;64669.47;5072973;28;20093;-79
2023/03/25 06:23:53;;;;;;;5.15;3.15;;;;;;;8.57;55.33;64645.31;5056665;28;20135;-82
2023/03/25 06:26:21;;;;;;;4.70;2.55;;;;;;;8.46;55.40;64633.53;5040257;28;20047;-80
2023/03/25 06:28:48;;;;;;;5.23;2.10;;;;;;;8.19;56.20;64603.19;5072218;28;20060;-80
2023/03/25 06:31:17;;;;;;;4.28;2.10;;;;;;;8.13;56.01;64596.47;5072595;28;20146;-79
2023/03/25 06:33:44;;;;;;;3.00;2.10;;;;;;;8.10;56.44;64593.09;5055502;28;20048;-80
2023/03/25 06:36:11;;;;;;;12.82;2.60;;;;;;;8.00;56.61;64582.97;5052122;28;20047;-80
2023/03/25 06:38:38;;;;;;;4.38;2.42;;;;;;;8.03;56.39;64586.34;5034509;28;20057;-81
2023/03/25 06:41:08;;;;;;;3.80;2.30;;;;;;;7.94;56.70;64576.25;5019022;28;20057;-79
2023/03/25 06:43:34;;;;;;;6.20;1.95;;;;;;;7.93;56.50;64575.13;5034232;28;20523;-81
2023/03/25 06:46:20;;;;;;;2.38;1.80;;;;;;;8.03;56.11;64585.78;5035666;28;20052;-82
2023/03/25 06:49:01;;;;;;;12.88;2.17;;;;;;;8.06;56.49;64588.59;5049159;28;20176;-80
2023/03/25 06:51:27;;;;;;;10.10;2.60;;;;;;;8.11;56.39;64594.22;5000070;28;20131;-81
2023/03/25 06:53:53;;;;;;;5.38;2.35;;;;;;;8.22;56.41;64607.13;5032803;28;20121;-82
2023/03/25 06:56:19;;;;;;;17.52;2.63;;;;;;;8.27;56.33;64612.75;5032622;28;20491;-82
2023/03/25 06:58:45;;;;;;;10.18;2.53;;;;;;;8.17;56.45;64600.97;5046741;28;20053;-80
2023/03/25 07:01:10;;;;;;;6.97;3.03;;;;;;;8.17;57.22;64601.50;5047544;28;20082;-82
2023/03/25 07:03:37;;;;;;;4.85;3.35;;;;;;;8.27;57.28;64612.75;5015921;28;20130;-81
2023/03/25 07:06:05;;;;;;;9.10;3.40;;;;;;;8.35;57.53;64621.16;5047528;28;20435;-79
2023/03/25 07:08:31;;;;;;;6.88;3.17;;;;;;;8.33;57.61;64618.91;5033721;28;20072;-80
2023/03/25 07:11:09;;;;;;;11.90;3.50;;;;;;;8.13;58.00;64596.47;5071986;28;20040;-79
2023/03/25 07:13:34;;;;;;;5.80;2.58;;;;;;;7.78;59.17;64558.28;5089077;28;20443;-79
2023/03/25 07:16:01;;;;;;;5.60;2.78;;;;;;;7.81;59.37;64561.66;5090756;28;20065;-79
2023/03/25 07:18:28;;;;;;;4.85;2.33;;;;;;;7.96;58.94;64578.50;5073392;28;20036;-77
2023/03/25 07:20:54;;;;;;;7.93;2.72;;;;;;;8.06;59.01;64589.16;5108599;28;20108;-78
2023/03/25 07:23:20;;;;;;;4.72;2.60;;;;;;;7.98;58.84;64580.75;5071606;28;20040;-76
2023/03/25 07:25:46;;;;;;;7.10;2.30;;;;;;;7.81;59.92;64561.66;5091543;28;20062;-78
2023/03/25 07:28:12;;;;;;;3.28;2.38;;;;;;;7.75;59.96;64554.94;5108279;28;20052;-76
2023/03/25 07:30:44;;;;;;;9.48;2.80;;;;;;;7.69;60.34;64548.75;5075747;28;20449;-77
2023/03/25 07:33:10;;;;;;;5.43;3.10;;;;;;;7.62;61.20;64540.34;5108584;28;20059;-78
2023/03/25 07:35:36;;;;;;;5.13;3.28;;;;;;;7.47;61.94;64524.06;5057975;28;20036;-78
2023/03/25 07:38:01;;;;;;;6.53;3.08;;;;;;;7.41;62.72;64517.91;5091774;28;20043;-77
2023/03/25 07:40:27;;;;;;;5.43;3.60;;;;;;;7.35;63.31;64510.59;5091344;28;20042;-80
2023/03/25 07:42:53;;;;;;;7.05;3.67;;;;;;;7.31;63.75;64506.69;5091772;28;20078;-79
2023/03/25 07:45:34;;;;;;;8.15;3.28;;;;;;;7.13;64.31;64486.50;5108386;28;20036;-80
2023/03/25 07:48:01;;;;;;;9.70;4.03;;;;;;;7.13;64.66;64486.50;5091379;28;20040;-77
2023/03/25 07:50:27;;;;;;;9.48;3.28;;;;;;;7.15;65.27;64488.75;5057820;28;20044;-78
2023/03/25 07:52:53;;;;;;;9.45;3.28;;;;;;;7.36;67.89;64512.28;5092454;28;20406;-83
2023/03/25 07:55:19;;;;;;;7.88;3.40;;;;;;;7.43;65.43;64520.13;5091531;28;20036;-78
2023/03/25 07:57:45;;;;;;;8.38;3.83;;;;;;;7.51;64.98;64529.13;5108468;28;20048;-79
2023/03/25 08:00:12;;;;;;;9.30;3.65;;;;;;;7.51;65.03;64529.13;5074262;28;20383;-79
2023/03/25 08:02:38;;;;;;;6.93;3.47;;;;;;;7.43;65.22;64520.13;5091403;28;20040;-80
2023/03/25 08:05:08;;;;;;;9.20;3.60;;;;;;;7.31;66.33;64506.69;5074714;28;20116;-79
2023/03/25 08:07:34;;;;;;;6.78;4.05;;;;;;;7.20;66.07;64494.34;5052416;28;20098;-81
2023/03/25 08:10:00;;;;;;;6.85;3.67;;;;;;;6.99;67.33;64471.91;5086267;28;20049;-81
2023/03/25 08:12:26;;;;;;;8.52;3.83;;;;;;;6.82;67.68;64452.84;5091111;28;20055;-81
2023/03/25 08:14:52;;;;;;;9.73;3.65;;;;;;;6.79;67.41;64450.03;5057734;28;20036;-79
2023/03/25 08:17:17;;;;;;;10.18;4.15;;;;;;;6.60;68.53;64428.19;5074342;28;20063;-80
2023/03/25 08:19:43;;;;;;;12.38;4.45;;;;;;;6.40;69.36;64406.88;5092530;28;20075;-79
2023/03/25 08:22:09;;;;;;;8.75;4.43;;;;;;;6.22;70.12;64387.28;5092909;28;20040;-79
2023/03/25 08:24:35;;;;;;;9.82;4.45;;;;;;;6.30;70.09;64396.25;5108074;28;20457;-78
2023/03/25 08:27:01;;;;;;;7.13;3.58;;;;;;;6.22;69.97;64387.28;5057282;28;20036;-78
2023/03/25 08:29:28;;;;;;;11.73;3.88;;;;;;;6.20;70.10;64385.03;5108115;28;20044;-79
2023/03/25 08:31:54;;;;;;;7.45;3.80;;;;;;;6.20;69.92;64384.47;5092178;28;20044;-78
2023/03/25 08:34:21;;;;;;;9.00;3.08;;;;;;;6.18;70.33;64382.78;5091143;28;20500;-80
2023/03/25 08:36:48;;;;;;;8.10;3.58;;;;;;;6.19;70.14;64383.34;5092281;28;20387;-78
2023/03/25 08:39:16;;;;;;;7.30;3.83;;;;;;;6.11;70.24;64374.38;5092349;28;20070;-76
2023/03/25 08:41:43;;;;;;;5.20;3.20;;;;;;;6.02;70.44;64364.88;5091346;28;20040;-78
2023/03/25 08:44:10;;;;;;;7.25;3.30;;;;;;;5.96;71.61;64358.16;5077745;28;20039;-78
2023/03/25 08:46:36;;;;;;;7.00;3.17;;;;;;;6.06;71.15;64369.91;5094489;28;20043;-79
2023/03/25 08:49:04;;;;;;;9.05;3.65;;;;;;;6.11;71.51;64374.94;5077803;28;20073;-78
2023/03/25 08:51:30;;;;;;;7.38;3.50;;;;;;;6.04;71.41;64367.66;5094706;28;20044;-80
2023/03/25 08:53:56;;;;;;;6.57;3.28;;;;;;;6.10;71.36;64373.28;5095623;28;20112;-78
2023/03/25 08:56:22;;;;;;;7.40;3.60;;;;;;;6.07;71.39;64370.47;5094255;28;20446;-79
2023/03/25 08:58:48;;;;;;;9.98;3.40;;;;;;;5.97;72.01;64359.25;5090160;28;20035;-80
2023/03/25 09:01:14;;;;;;;7.70;3.58;;;;;;;6.03;71.66;64366.53;5073452;28;20052;-79
2023/03/25 09:03:41;;;;;;;5.88;3.17;;;;;;;6.02;71.88;64365.44;5057982;28;20044;-80
2023/03/25 09:06:08;;;;;;;16.00;9.48;;;;;;;6.15;71.48;64378.88;5095597;28;20071;-81
2023/03/25 09:08:38;;;;;;;6.07;3.50;;;;;;;6.20;71.32;64385.03;5092810;28;20692;-81
2023/03/25 09:11:04;;;;;;;9.52;4.15;;;;;;;6.52;70.61;64420.34;5094644;28;20414;-80
2023/03/25 09:13:30;;;;;;;5.32;3.60;;;;;;;6.76;70.18;64446.13;5093177;28;20473;-80
2023/03/25 09:15:57;;;;;;;6.00;3.45;;;;;;;7.05;69.02;64478.09;5076484;28;20040;-81
2023/03/25 09:18:23;;;;;;;6.38;3.67;;;;;;;7.16;68.41;64489.84;5076380;28;20055;-80
2023/03/25 09:20:50;;;;;;;11.85;4.07;;;;;;;7.04;67.81;64477.53;5076048;28;20495;-81
2023/03/25 09:23:17;;;;;;;5.85;4.00;;;;;;;6.84;68.19;64455.09;5076580;28;20040;-80
2023/03/25 09:25:45;;;;;;;10.90;4.28;;;;;;;6.85;68.39;64455.66;5059984;28;20044;-82
2023/03/25 09:28:10;;;;;;;6.35;4.10;;;;;;;6.81;68.41;64452.28;5093157;28;20098;-81
2023/03/25 09:30:36;;;;;;;6.57;3.75;;;;;;;6.86;68.22;64456.78;5076798;28;20510;-82
2023/03/25 09:33:05;;;;;;;8.57;3.78;;;;;;;6.90;68.06;64461.25;5094689;28;20082;-81
2023/03/25 09:35:31;;;;;;;5.50;3.75;;;;;;;6.88;67.90;64459.56;5093780;28;20518;-82
2023/03/25 09:37:57;;;;;;;11.70;3.70;;;;;;;6.80;68.11;64450.59;5076854;28;20039;-80
2023/03/25 09:40:24;;;;;;;8.50;3.78;;;;;;;6.91;68.07;64462.38;5093664;28;20047;-80
2023/03/25 09:43:07;;;;;;;12.90;3.80;;;;;;;6.82;67.94;64453.41;5059827;28;20043;-80
2023/03/25 09:45:42;;;;;;;12.63;3.45;;;;;;;6.89;67.60;64460.69;5094115;28;20051;-81
2023/03/25 09:48:29;;;;;;;6.32;4.10;;;;;;;7.05;67.29;64478.09;5077347;28;20047;-81
2023/03/25 09:51:28;;;;;;;9.98;5.05;;;;;;;7.21;67.17;64495.47;5077272;28;20048;-80
2023/03/25 09:54:12;;;;;;;10.13;4.10;;;;;;;7.62;66.35;64540.34;5069808;28;20047;-81
2023/03/25 09:56:42;;;;;;;6.75;3.50;;;;;;;7.82;65.40;64562.22;5093144;28;20044;-81
2023/03/25 09:59:20;;;;;;;12.93;3.90;;;;;;;8.02;64.74;64585.25;5059546;28;20040;-79
2023/03/25 10:02:01;;;;;;;10.25;3.80;;;;;;;8.16;64.01;64599.81;5076523;28;20055;-79
2023/03/25 10:04:57;;;;;;;14.52;3.95;;;;;;;8.21;63.61;64605.44;5059689;28;20071;-78
2023/03/25 10:07:32;;;;;;;7.85;3.80;;;;;;;8.77;62.33;64667.25;5076031;28;20130;-81
2023/03/25 10:10:29;;;;;;;6.43;3.70;;;;;;;9.30;62.29;64725.66;5059133;28;20558;-79
2023/03/25 10:13:25;;;;;;;5.53;3.45;;;;;;;9.49;60.51;64747.03;5059230;28;20079;-79
2023/03/25 10:15:58;;;;;;;6.63;4.22;;;;;;;9.46;60.14;64743.66;5054916;28;20052;-78
2023/03/25 10:18:46;;;;;;;5.88;4.00;;;;;;;9.18;60.40;64712.19;5076025;28;20115;-81
2023/03/25 10:21:24;;;;;;;6.10;4.25;;;;;;;9.23;60.72;64717.81;5093003;28;20139;-80
2023/03/25 10:24:07;;;;;;;7.50;4.30;;;;;;;9.22;60.53;64716.69;5059198;28;20105;-79
2023/03/25 10:26:44;;;;;;;13.30;4.57;;;;;;;9.23;60.73;64717.81;5092807;28;20048;-78
2023/03/25 10:29:15;;;;;;;5.55;4.13;;;;;;;8.97;61.51;64689.69;5075971;28;20056;-78
2023/03/25 10:31:56;;;;;;;11.38;4.38;;;;;;;9.00;61.30;64693.06;5093984;28;20036;-80
2023/03/25 10:34:39;;;;;;;11.77;4.55;;;;;;;9.15;61.22;64708.81;5075498;28;20119;-78
2023/03/25 10:37:11;;;;;;;8.80;5.10;;;;;;;9.08;60.91;64700.94;5092653;28;20070;-78
2023/03/25 10:39:44;;;;;;;7.60;4.78;;;;;;;8.74;61.78;64663.88;5093924;28;20047;-78
2023/03/25 10:42:30;;;;;;;9.25;4.90;;;;;;;8.68;61.93;64657.69;5075667;28;20050;-78
2023/03/25 10:44:56;;;;;;;10.48;4.45;;;;;;;8.58;62.29;64645.91;5093815;28;20158;-78
2023/03/25 10:47:37;;;;;;;10.93;5.10;;;;;;;8.76;62.10;64666.09;5092236;28;20036;-78
2023/03/25 10:50:04;;;;;;;8.88;4.82;;;;;;;8.68;62.03;64657.13;5058884;28;20498;-78
2023/03/25 10:52:30;;;;;;;9.57;4.50;;;;;;;8.62;62.19;64650.38;5091032;28;20036;-79
2023/03/25 10:54:57;;;;;;;8.57;5.25;;;;;;;8.47;62.65;64634.66;5090623;28;20044;-78
2023/03/25 10:57:26;;;;;;;11.93;5.35;;;;;;;8.67;62.31;64656.00;5092351;28;20090;-77
2023/03/25 11:00:17;;;;;;;;;;;;;;;8.64;62.61;64653.19;5079882;28;20106;-78
2023/03/25 11:02:45;;;;;;;10.70;5.10;;;;;;;8.71;62.53;64660.50;5071023;28;20037;-79
2023/03/25 11:05:16;;;;;;;9.77;4.45;;;;;;;8.71;62.39;64661.06;5066130;28;20037;-77
2023/03/25 11:08:01;;;;;;;14.13;5.60;;;;;;;8.87;62.70;64677.91;5070378;28;20043;-78
2023/03/25 11:10:33;;;;;;;10.07;5.38;;;;;;;8.89;62.38;64680.72;5072575;28;20040;-79
2023/03/25 11:13:02;;;;;;;10.60;6.18;;;;;;;8.87;62.47;64678.47;5092141;28;20494;-79
2023/03/25 11:15:37;;;;;;;8.52;5.78;;;;;;;8.95;62.47;64686.88;5071601;28;20040;-77
2023/03/25 11:18:12;;;;;;;13.50;7.18;;;;;;;8.87;62.15;64677.91;5085741;28;20043;-79
2023/03/25 11:20:44;;;;;;;13.95;6.28;;;;;;;8.84;62.53;64674.53;5037982;28;20041;-79
2023/03/25 11:23:26;;;;;;;13.60;6.82;;;;;;;8.84;62.88;64675.09;5074321;28;20129;-80
2023/03/25 11:25:54;;;;;;;11.93;7.65;;;;;;;9.00;62.59;64693.06;5055194;28;20044;-80
2023/03/25 11:28:44;;;;;;;16.77;7.75;;;;;;;9.02;62.35;64694.19;5071134;28;20056;-82
2023/03/25 11:31:10;;;;;;;14.20;8.25;;;;;;;9.06;62.33;64698.69;5095550;28;20093;-80
2023/03/25 11:33:38;;;;;;;15.98;8.02;;;;;;;9.21;62.02;64715.53;5075161;28;20429;-80
2023/03/25 11:36:31;;;;;;;17.67;9.15;;;;;;;9.06;62.25;64698.69;5074783;28;20040;-80
2023/03/25 11:39:03;;;;;;;18.77;10.32;;;;;;;9.03;62.34;64695.31;5069015;28;20048;-79
2023/03/25 11:41:34;;;;;;;26.27;10.52;;;;;;;8.89;62.45;64680.72;5092151;28;20032;-81
2023/03/25 11:44:04;;;;;;;21.58;11.95;;;;;;;8.75;63.22;64664.97;5090811;28;20558;-77
2023/03/25 11:46:31;;;;;;;24.10;12.20;;;;;;;8.81;62.83;64671.72;5108382;28;20055;-79
2023/03/25 11:49:08;;;;;;;25.75;13.40;;;;;;;8.73;63.53;64662.75;5090781;28;20041;-80
2023/03/25 11:51:35;;;;;;;22.15;12.65;;;;;;;8.56;64.25;64643.66;5070950;28;20411;-80
2023/03/25 11:54:06;;;;;;;19.65;12.48;;;;;;;8.46;64.90;64633.53;5037345;28;20100;-78
2023/03/25 11:56:41;;;;;;;24.85;14.13;;;;;;;8.49;65.01;64636.91;5037826;28;20399;-79